Time;durP1;ratioP1;P1;durP2;ratioP2;P2;SDS_P1;SDS_P2;PMS_P1;PMS_P2;Temp;Humidity;BMP_temperature;BMP_pressure;BME280_temperature;BME280_humidity;BME280_pressure;Samples;Min_cycle;Max_cycle;Signal;HPM_P1;HPM_P2
2021/08/28 00:00:51;;;;;;;7.28;4.07;;;17.20;99.90;;;;;;2072107;28;20034;-69
2021/08/28 00:01:51;;;;;;;4.88;3.38;;;17.20;99.90;;;;;;2072160;28;20022;-69
2021/08/28 00:02:52;;;;;;;6.43;3.92;;;17.20;99.90;;;;;;2071993;28;20018;-69
2021/08/28 00:03:52;;;;;;;8.10;3.75;;;17.20;99.90;;;;;;2072437;28;20109;-70
2021/08/28 00:04:53;;;;;;;7.10;3.70;;;17.20;99.90;;;;;;2072328;28;20049;-70
2021/08/28 00:05:54;;;;;;;6.15;3.78;;;17.20;99.90;;;;;;2073058;28;20037;-69
2021/08/28 00:06:54;;;;;;;8.65;4.45;;;17.20;99.90;;;;;;2072176;28;20025;-69
2021/08/28 00:07:56;;;;;;;6.78;3.88;;;17.20;99.90;;;;;;2072613;28;20025;-69
2021/08/28 00:08:57;;;;;;;5.25;3.50;;;17.20;99.90;;;;;;2072089;28;20038;-69
2021/08/28 00:09:58;;;;;;;10.13;4.03;;;17.20;99.90;;;;;;2071332;28;20436;-69
2021/08/28 00:10:59;;;;;;;7.97;4.18;;;17.20;99.90;;;;;;2072339;28;20048;-69
2021/08/28 00:11:59;;;;;;;6.38;4.20;;;17.20;99.90;;;;;;2072637;28;20060;-69
2021/08/28 00:13:00;;;;;;;5.00;3.10;;;17.20;99.90;;;;;;2071885;28;20054;-69
2021/08/28 00:14:00;;;;;;;6.72;4.22;;;17.10;99.90;;;;;;2072474;28;20026;-69
2021/08/28 00:15:01;;;;;;;7.60;4.20;;;17.20;99.90;;;;;;2072225;28;20026;-69
2021/08/28 00:16:02;;;;;;;6.03;3.22;;;17.10;99.90;;;;;;2072056;28;20026;-69
2021/08/28 00:17:03;;;;;;;5.40;3.72;;;17.10;99.90;;;;;;2072605;28;20065;-69
2021/08/28 00:18:03;;;;;;;5.95;3.40;;;17.20;99.90;;;;;;2069104;28;20080;-69
2021/08/28 00:19:04;;;;;;;8.25;3.15;;;17.10;99.90;;;;;;2072461;28;20536;-69
2021/08/28 00:20:09;;;;;;;9.55;4.65;;;17.10;99.90;;;;;;2072300;28;20032;-69
2021/08/28 00:21:09;;;;;;;10.77;4.75;;;17.10;99.90;;;;;;2072048;28;20022;-69
2021/08/28 00:22:10;;;;;;;8.00;4.05;;;17.10;99.90;;;;;;2072075;28;20022;-69
2021/08/28 00:23:11;;;;;;;6.90;4.22;;;17.10;99.90;;;;;;2072163;28;20014;-69
2021/08/28 00:24:12;;;;;;;8.68;4.00;;;17.00;99.90;;;;;;2072336;28;20517;-69
2021/08/28 00:25:13;;;;;;;8.25;4.68;;;17.10;99.90;;;;;;2072417;28;20034;-70
2021/08/28 00:26:14;;;;;;;7.55;4.70;;;17.10;99.90;;;;;;2072914;28;20470;-69
2021/08/28 00:27:14;;;;;;;9.65;3.85;;;17.00;99.90;;;;;;2072845;28;20425;-69
2021/08/28 00:28:15;;;;;;;7.35;4.03;;;17.10;99.90;;;;;;2072094;28;20052;-69
2021/08/28 00:29:15;;;;;;;8.55;4.20;;;17.10;99.90;;;;;;2072306;28;20481;-69
2021/08/28 00:30:16;;;;;;;6.82;3.60;;;17.10;99.90;;;;;;2072221;28;20068;-69
2021/08/28 00:31:16;;;;;;;6.57;4.47;;;17.10;99.90;;;;;;2072165;28;20441;-69
2021/08/28 00:32:17;;;;;;;7.18;3.25;;;17.10;99.90;;;;;;2071971;28;20048;-69
2021/08/28 00:33:18;;;;;;;8.20;4.78;;;17.10;99.90;;;;;;2071897;28;20029;-69
2021/08/28 00:34:18;;;;;;;9.88;4.38;;;17.10;99.90;;;;;;2072195;28;20496;-69
2021/08/28 00:35:19;;;;;;;12.45;4.75;;;17.10;99.90;;;;;;2065793;28;20104;-69
2021/08/28 00:36:19;;;;;;;9.68;4.65;;;17.10;99.90;;;;;;2066558;28;20529;-69
2021/08/28 00:37:20;;;;;;;7.03;3.88;;;17.10;99.90;;;;;;2070274;28;20029;-69
2021/08/28 00:38:20;;;;;;;9.30;4.40;;;17.10;99.90;;;;;;2072168;28;20030;-69
2021/08/28 00:39:21;;;;;;;9.40;4.70;;;17.10;99.90;;;;;;2072300;28;20046;-69
2021/08/28 00:40:21;;;;;;;9.23;4.53;;;17.10;99.90;;;;;;2071995;28;20152;-69
2021/08/28 00:41:22;;;;;;;8.10;4.18;;;17.10;99.90;;;;;;2073312;28;20433;-69
2021/08/28 00:42:23;;;;;;;9.95;5.20;;;17.00;99.90;;;;;;2075080;28;20026;-69
2021/08/28 00:43:25;;;;;;;9.88;4.90;;;17.00;99.90;;;;;;2071602;28;20104;-69
2021/08/28 00:44:26;;;;;;;12.43;5.53;;;17.00;99.90;;;;;;2072325;28;20116;-69
2021/08/28 00:45:38;;;;;;;10.20;4.60;;;17.00;99.90;;;;;;2072291;28;20470;-69
2021/08/28 00:46:38;;;;;;;8.48;4.72;;;16.90;99.90;;;;;;2072126;28;20064;-70
2021/08/28 00:47:39;;;;;;;7.55;5.35;;;16.90;99.90;;;;;;2072173;28;20034;-69
2021/08/28 00:48:39;;;;;;;7.47;5.07;;;16.90;99.90;;;;;;2072111;28;20401;-69
2021/08/28 00:49:40;;;;;;;9.98;5.28;;;16.90;99.90;;;;;;2071323;28;20030;-70
2021/08/28 00:50:42;;;;;;;6.80;5.47;;;16.90;99.90;;;;;;2071490;28;20091;-69
2021/08/28 00:51:45;;;;;;;10.27;6.35;;;16.90;99.90;;;;;;2065580;28;20419;-69
2021/08/28 00:52:45;;;;;;;7.82;6.40;;;16.90;99.90;;;;;;2071658;28;20029;-69
2021/08/28 00:53:46;;;;;;;9.52;5.75;;;16.90;99.90;;;;;;2071289;28;20036;-69
2021/08/28 00:54:48;;;;;;;9.13;5.95;;;16.80;99.90;;;;;;2071368;28;20058;-69
2021/08/28 00:55:50;;;;;;;10.10;6.30;;;16.90;99.90;;;;;;2072065;28;20061;-69
2021/08/28 00:56:51;;;;;;;11.73;6.78;;;16.80;99.90;;;;;;2071904;28;20064;-69
2021/08/28 00:57:54;;;;;;;8.63;6.15;;;16.80;99.90;;;;;;2073576;28;20029;-69
2021/08/28 00:58:55;;;;;;;13.15;5.88;;;16.80;99.90;;;;;;2071890;28;20022;-69
2021/08/28 00:59:55;;;;;;;9.90;7.05;;;16.70;99.90;;;;;;2072063;28;20109;-69
2021/08/28 01:01:03;;;;;;;14.05;7.18;;;16.70;99.90;;;;;;2072472;28;20040;-69
2021/08/28 01:02:06;;;;;;;9.43;6.75;;;16.70;99.90;;;;;;2071553;28;20021;-69
2021/08/28 01:03:07;;;;;;;6.88;5.97;;;16.70;99.90;;;;;;2071449;28;20042;-69
2021/08/28 01:04:14;;;;;;;10.80;6.70;;;16.70;99.90;;;;;;2071976;28;20079;-69
2021/08/28 01:05:29;;;;;;;12.73;6.85;;;16.70;99.90;;;;;;2071873;28;20026;-69
2021/08/28 01:06:57;;;;;;;10.63;6.55;;;16.70;99.90;;;;;;2072169;28;20022;-69
2021/08/28 01:08:38;;;;;;;15.38;6.47;;;16.70;99.90;;;;;;2071978;28;20065;-69
2021/08/28 01:09:45;;;;;;;15.02;6.63;;;16.70;99.90;;;;;;2070491;28;20060;-69
2021/08/28 01:11:18;;;;;;;9.38;6.30;;;16.60;99.90;;;;;;2072026;28;20125;-69
2021/08/28 01:12:23;;;;;;;12.23;6.50;;;16.60;99.90;;;;;;2069192;28;20112;-69
2021/08/28 01:13:24;;;;;;;11.35;5.95;;;16.60;99.90;;;;;;2071412;28;20056;-69
2021/08/28 01:14:28;;;;;;;8.27;6.65;;;16.60;99.90;;;;;;2073487;28;20034;-69
2021/08/28 01:15:30;;;;;;;10.55;7.03;;;16.70;99.90;;;;;;2079774;28;20028;-69
2021/08/28 01:16:33;;;;;;;10.40;7.00;;;16.70;99.90;;;;;;2072657;28;20036;-69
2021/08/28 01:17:35;;;;;;;8.55;6.28;;;16.70;99.90;;;;;;2068973;28;20056;-69
2021/08/28 01:18:39;;;;;;;7.68;5.80;;;16.70;99.90;;;;;;2071822;28;20093;-69
2021/08/28 01:19:52;;;;;;;13.00;7.40;;;16.70;99.90;;;;;;2071542;28;20076;-69
2021/08/28 01:21:13;;;;;;;10.40;6.85;;;16.70;99.90;;;;;;2065251;28;20031;-69
2021/08/28 01:22:17;;;;;;;9.20;7.00;;;16.70;99.90;;;;;;2071885;28;20022;-70
2021/08/28 01:23:19;;;;;;;16.75;7.70;;;16.70;99.90;;;;;;2071319;28;20030;-69
2021/08/28 01:24:20;;;;;;;9.25;7.20;;;16.80;99.90;;;;;;2071901;28;20030;-69
2021/08/28 01:25:21;;;;;;;11.70;7.43;;;16.80;99.90;;;;;;2071389;28;20915;-69
2021/08/28 01:26:23;;;;;;;7.65;6.18;;;16.80;99.90;;;;;;2071794;28;20490;-69
2021/08/28 01:27:35;;;;;;;11.10;7.63;;;16.80;99.90;;;;;;2071465;28;20485;-69
2021/08/28 01:29:00;;;;;;;8.75;6.80;;;16.90;99.90;;;;;;2071904;28;20152;-69
2021/08/28 01:30:02;;;;;;;9.95;6.95;;;16.90;99.90;;;;;;2071841;28;20030;-69
2021/08/28 01:31:03;;;;;;;9.88;7.22;;;16.80;99.90;;;;;;2074147;28;20026;-69
2021/08/28 01:32:04;;;;;;;11.95;7.50;;;16.90;99.90;;;;;;2071328;28;20034;-69
2021/08/28 01:33:05;;;;;;;13.48;7.07;;;16.80;99.90;;;;;;2071601;28;20044;-69
2021/08/28 01:34:05;;;;;;;15.25;7.53;;;16.90;99.90;;;;;;2071413;28;20566;-69
2021/08/28 01:35:07;;;;;;;10.73;7.85;;;16.90;99.90;;;;;;2072052;28;20068;-69
2021/08/28 01:36:08;;;;;;;11.90;8.75;;;16.90;99.90;;;;;;2071655;28;20489;-69
2021/08/28 01:37:11;;;;;;;10.18;8.60;;;16.90;99.90;;;;;;2071560;28;20045;-69
2021/08/28 01:38:12;;;;;;;12.82;8.38;;;16.90;99.90;;;;;;2071749;28;20022;-69
2021/08/28 01:39:14;;;;;;;10.95;9.05;;;16.90;99.90;;;;;;2072003;28;20018;-69
2021/08/28 01:40:17;;;;;;;12.27;9.00;;;16.90;99.90;;;;;;2071731;28;20036;-70
2021/08/28 01:41:18;;;;;;;15.10;9.88;;;16.90;99.90;;;;;;2071833;28;20463;-69
2021/08/28 01:42:20;;;;;;;11.55;8.50;;;16.90;99.90;;;;;;2071490;28;20538;-69
2021/08/28 01:43:22;;;;;;;10.52;9.32;;;16.90;99.90;;;;;;2071507;28;20026;-69
2021/08/28 01:44:23;;;;;;;11.40;8.57;;;16.90;99.90;;;;;;2075485;28;20026;-69
2021/08/28 01:45:26;;;;;;;12.55;8.05;;;17.00;99.90;;;;;;2076865;28;20426;-69
2021/08/28 01:46:26;;;;;;;15.38;7.68;;;17.00;99.90;;;;;;2072179;28;20071;-69
2021/08/28 01:47:28;;;;;;;12.93;8.57;;;17.00;99.90;;;;;;2071492;28;20080;-69
2021/08/28 01:48:31;;;;;;;15.60;10.75;;;17.00;99.90;;;;;;2071517;28;20413;-69
2021/08/28 01:49:32;;;;;;;14.02;9.57;;;17.00;99.90;;;;;;2071708;28;20030;-69
2021/08/28 01:50:34;;;;;;;11.75;10.55;;;17.00;99.90;;;;;;2071164;28;20064;-69
2021/08/28 01:51:37;;;;;;;14.00;11.82;;;17.00;99.90;;;;;;2071558;28;20030;-69
2021/08/28 01:52:39;;;;;;;16.70;14.05;;;17.00;99.90;;;;;;2071293;28;20125;-69
2021/08/28 01:53:39;;;;;;;18.10;15.68;;;17.00;99.90;;;;;;2071875;28;20036;-69
2021/08/28 01:54:40;;;;;;;22.35;16.33;;;17.00;99.90;;;;;;2071716;28;20040;-69
2021/08/28 01:55:42;;;;;;;17.02;15.40;;;17.00;99.90;;;;;;2071586;28;20033;-69
2021/08/28 01:56:43;;;;;;;24.25;17.40;;;17.00;99.90;;;;;;2070850;28;20065;-69
2021/08/28 01:57:44;;;;;;;22.80;17.23;;;17.00;99.90;;;;;;2071577;28;20033;-69
2021/08/28 01:58:45;;;;;;;18.52;14.57;;;17.00;99.90;;;;;;2073753;28;20489;-69
2021/08/28 01:59:45;;;;;;;17.45;14.82;;;17.00;99.90;;;;;;2071990;28;20029;-69
2021/08/28 02:00:46;;;;;;;17.38;14.48;;;17.00;99.90;;;;;;2072340;28;20034;-69
2021/08/28 02:01:46;;;;;;;21.40;16.88;;;17.00;99.90;;;;;;2072032;28;20546;-69
2021/08/28 07:47:13;;;;;;;11.20;7.50;;;17.00;99.90;;;;;;2073689;28;20038;-70
2021/08/28 07:48:13;;;;;;;11.07;8.30;;;17.10;99.90;;;;;;2075732;28;20037;-70
2021/08/28 07:49:14;;;;;;;10.35;8.38;;;17.10;99.90;;;;;;2081422;28;20096;-70
2021/08/28 07:50:16;;;;;;;10.38;8.00;;;17.20;99.90;;;;;;2077253;28;20022;-70
2021/08/28 07:51:16;;;;;;;10.32;8.52;;;17.20;99.90;;;;;;2081182;28;20026;-70
2021/08/28 07:52:18;;;;;;;14.55;9.00;;;17.30;99.90;;;;;;2081665;28;20029;-70
2021/08/28 07:53:19;;;;;;;13.48;8.82;;;17.30;99.90;;;;;;2081409;28;20032;-70
2021/08/28 07:54:19;;;;;;;10.32;8.02;;;17.40;99.90;;;;;;2082136;28;20028;-70
2021/08/28 07:55:20;;;;;;;11.40;8.90;;;17.40;99.90;;;;;;2081969;28;20393;-70
2021/08/28 07:56:21;;;;;;;10.25;8.80;;;17.40;99.90;;;;;;2071907;28;20029;-70
2021/08/28 07:57:21;;;;;;;12.40;7.75;;;17.40;99.90;;;;;;2064910;28;20121;-70
2021/08/28 07:58:22;;;;;;;12.18;8.88;;;17.50;99.90;;;;;;2073220;28;20470;-70
2021/08/28 07:59:22;;;;;;;10.88;8.27;;;17.50;99.90;;;;;;2081737;28;20021;-70
2021/08/28 08:00:23;;;;;;;9.32;7.65;;;17.50;99.90;;;;;;2081846;28;20030;-70
2021/08/28 08:01:23;;;;;;;11.80;7.90;;;17.50;99.90;;;;;;2081690;28;20025;-70
2021/08/28 08:02:24;;;;;;;10.55;8.45;;;17.60;99.90;;;;;;2081526;28;20021;-70
2021/08/28 08:03:25;;;;;;;12.25;8.57;;;17.60;99.90;;;;;;2080895;28;20026;-70
2021/08/28 08:04:25;;;;;;;10.60;8.18;;;17.60;99.90;;;;;;2081904;28;20509;-70
2021/08/28 08:05:26;;;;;;;10.93;7.72;;;17.60;99.90;;;;;;2081822;28;20489;-70
2021/08/28 08:06:27;;;;;;;12.60;8.25;;;17.60;99.90;;;;;;2081968;28;20033;-70
2021/08/28 08:07:27;;;;;;;8.45;7.53;;;17.60;99.90;;;;;;2081837;28;20033;-70
2021/08/28 08:08:28;;;;;;;8.77;7.85;;;17.70;99.90;;;;;;2081580;28;20496;-70
2021/08/28 08:09:28;;;;;;;10.13;7.85;;;17.70;99.90;;;;;;2081536;28;20021;-70
2021/08/28 08:10:29;;;;;;;8.75;7.50;;;17.70;99.90;;;;;;2082044;28;20025;-70
2021/08/28 08:11:30;;;;;;;8.23;7.43;;;17.70;99.90;;;;;;2081421;28;20040;-70
2021/08/28 08:12:31;;;;;;;9.52;7.88;;;17.70;99.90;;;;;;2081832;28;20032;-70
2021/08/28 08:13:32;;;;;;;10.15;8.18;;;17.70;99.90;;;;;;2081481;28;20048;-70
2021/08/28 08:14:32;;;;;;;9.80;8.40;;;17.70;99.90;;;;;;2081814;28;20022;-70
2021/08/28 08:15:33;;;;;;;13.27;7.85;;;17.80;99.90;;;;;;2081630;28;20030;-70
2021/08/28 08:16:34;;;;;;;10.73;7.85;;;17.80;99.90;;;;;;2081786;28;20032;-70
2021/08/28 08:17:34;;;;;;;10.48;7.75;;;17.80;99.90;;;;;;2081811;28;20052;-70
2021/08/28 08:18:35;;;;;;;8.60;7.60;;;17.80;99.90;;;;;;2081934;28;20113;-70
2021/08/28 08:19:35;;;;;;;11.27;8.48;;;17.80;99.90;;;;;;2081408;28;20497;-70
2021/08/28 08:20:36;;;;;;;9.38;8.40;;;17.80;99.90;;;;;;2081839;28;20018;-70
2021/08/28 08:21:36;;;;;;;13.88;8.30;;;17.80;99.90;;;;;;2081333;28;20021;-70
2021/08/28 08:22:37;;;;;;;11.23;8.38;;;17.80;99.90;;;;;;2081288;28;20084;-70
2021/08/28 08:23:37;;;;;;;13.63;8.73;;;17.80;99.90;;;;;;2081828;28;20022;-70
2021/08/28 08:24:38;;;;;;;12.23;7.47;;;17.80;99.90;;;;;;2081812;28;20025;-70
2021/08/28 08:25:38;;;;;;;10.73;7.43;;;17.90;99.90;;;;;;2081811;28;20446;-70
2021/08/28 08:26:39;;;;;;;10.63;6.97;;;17.90;99.90;;;;;;2081597;28;20080;-70
2021/08/28 08:27:40;;;;;;;8.75;7.50;;;17.90;99.90;;;;;;2081894;28;20021;-70
2021/08/28 08:28:40;;;;;;;9.68;7.15;;;17.90;99.90;;;;;;2081705;28;20026;-70
2021/08/28 08:29:41;;;;;;;9.02;6.97;;;17.90;99.90;;;;;;2081139;28;20458;-70
2021/08/28 08:30:42;;;;;;;9.10;7.25;;;17.90;99.90;;;;;;2080964;28;20524;-70
2021/08/28 08:31:42;;;;;;;8.43;6.70;;;17.90;99.90;;;;;;2081090;28;20026;-70
2021/08/28 08:32:43;;;;;;;7.90;7.15;;;17.90;99.90;;;;;;2081336;28;20440;-70
2021/08/28 08:33:43;;;;;;;10.18;7.43;;;17.90;99.90;;;;;;2081461;28;20136;-70
2021/08/28 08:34:44;;;;;;;9.93;8.20;;;17.90;99.90;;;;;;2081558;28;20033;-70
2021/08/28 08:35:45;;;;;;;9.60;8.18;;;17.90;99.90;;;;;;2081855;28;20026;-70
2021/08/28 08:36:45;;;;;;;9.95;8.07;;;18.00;99.90;;;;;;2081629;28;20028;-70
2021/08/28 08:37:46;;;;;;;11.27;7.95;;;18.00;99.90;;;;;;2081715;28;20041;-70
2021/08/28 08:38:46;;;;;;;9.27;7.50;;;18.00;99.90;;;;;;2081586;28;20039;-70
2021/08/28 08:39:47;;;;;;;10.30;8.13;;;18.00;99.90;;;;;;2081362;28;20014;-70
2021/08/28 08:40:48;;;;;;;7.63;6.53;;;18.00;99.90;;;;;;2081622;28;20104;-70
2021/08/28 08:41:50;;;;;;;11.65;7.40;;;18.00;99.90;;;;;;2081208;28;20116;-70
2021/08/28 08:42:51;;;;;;;8.40;7.47;;;18.00;99.90;;;;;;2081483;28;20104;-70
2021/08/28 08:43:56;;;;;;;11.98;7.97;;;18.00;99.90;;;;;;2081673;28;20022;-70
2021/08/28 08:44:57;;;;;;;7.95;7.07;;;18.00;99.90;;;;;;2081607;28;20032;-70
2021/08/28 08:45:59;;;;;;;8.75;7.00;;;18.00;99.90;;;;;;2081692;28;20032;-70
2021/08/28 08:47:00;;;;;;;9.63;7.38;;;18.00;99.90;;;;;;2072342;28;20038;-70
2021/08/28 08:48:00;;;;;;;7.95;7.15;;;18.00;99.90;;;;;;2072838;28;20061;-70
2021/08/28 08:49:02;;;;;;;10.25;7.18;;;18.10;99.90;;;;;;2081078;28;20358;-70
2021/08/28 08:50:04;;;;;;;9.27;7.40;;;18.10;99.90;;;;;;2081293;28;20017;-70
2021/08/28 08:51:05;;;;;;;7.40;6.63;;;18.10;99.90;;;;;;2080553;28;20029;-70
2021/08/28 08:52:06;;;;;;;8.07;6.70;;;18.10;99.90;;;;;;2086659;28;20025;-70
2021/08/28 08:53:09;;;;;;;8.43;7.03;;;18.10;99.90;;;;;;2081225;28;20025;-70
2021/08/28 08:54:10;;;;;;;10.90;7.20;;;18.10;99.90;;;;;;2081566;28;20021;-70
2021/08/28 08:55:10;;;;;;;9.27;7.00;;;18.10;99.90;;;;;;2081044;28;20385;-70
2021/08/28 08:56:12;;;;;;;10.30;7.63;;;18.10;99.90;;;;;;2084173;28;20068;-70
2021/08/28 08:57:12;;;;;;;10.25;7.07;;;18.20;99.90;;;;;;2086867;28;20025;-70
2021/08/28 08:58:14;;;;;;;8.65;6.85;;;18.20;99.90;;;;;;2081791;28;20075;-70
2021/08/28 08:59:14;;;;;;;9.80;6.80;;;18.20;99.90;;;;;;2080979;28;20031;-70
2021/08/28 09:00:15;;;;;;;10.25;6.45;;;18.20;99.90;;;;;;2081227;28;20029;-70
2021/08/28 09:01:16;;;;;;;8.13;6.72;;;18.30;99.90;;;;;;2081130;28;20018;-70
2021/08/28 09:02:17;;;;;;;8.25;6.57;;;18.30;99.90;;;;;;2081497;28;20742;-70
2021/08/28 09:03:17;;;;;;;10.40;6.70;;;18.30;99.90;;;;;;2081152;28;20032;-70
2021/08/28 09:04:18;;;;;;;7.88;6.57;;;18.30;99.90;;;;;;2081417;28;20719;-70
2021/08/28 09:05:18;;;;;;;10.10;6.55;;;18.30;99.90;;;;;;2081251;28;20076;-70
2021/08/28 09:06:19;;;;;;;7.88;7.18;;;18.40;99.90;;;;;;2081534;28;20619;-70
2021/08/28 09:07:20;;;;;;;8.65;6.70;;;18.40;99.90;;;;;;2081616;28;20042;-70
2021/08/28 09:08:20;;;;;;;8.88;7.53;;;18.40;99.90;;;;;;2080957;28;20021;-70
2021/08/28 09:09:22;;;;;;;11.93;7.50;;;18.50;99.90;;;;;;2080957;28;20032;-70
2021/08/28 09:10:23;;;;;;;7.53;6.68;;;18.50;99.90;;;;;;2081392;28;20772;-70
2021/08/28 09:11:30;;;;;;;9.30;7.57;;;18.60;99.90;;;;;;2081335;28;20439;-70
2021/08/28 09:12:39;;;;;;;7.35;6.65;;;18.60;99.90;;;;;;2074852;28;20122;-70
2021/08/28 09:13:39;;;;;;;9.70;6.75;;;18.60;99.90;;;;;;2069953;28;20018;-70
2021/08/28 09:14:40;;;;;;;7.88;7.00;;;18.60;99.90;;;;;;2072282;28;20077;-70
2021/08/28 09:15:47;;;;;;;7.72;6.93;;;18.60;99.90;;;;;;2081322;28;20025;-70
2021/08/28 09:16:49;;;;;;;12.23;6.97;;;18.60;99.90;;;;;;2080752;28;20029;-70
2021/08/28 09:18:01;;;;;;;7.50;6.45;;;18.60;99.90;;;;;;2080606;28;20032;-69
2021/08/28 09:19:01;;;;;;;7.45;6.75;;;18.60;99.90;;;;;;2081085;28;20014;-70
2021/08/28 09:20:17;;;;;;;8.40;6.65;;;18.60;99.90;;;;;;2076777;28;20092;-70
2021/08/28 09:21:23;;;;;;;9.57;6.95;;;18.60;99.90;;;;;;2083818;28;20051;-70
2021/08/28 09:22:28;;;;;;;7.85;7.03;;;18.60;99.90;;;;;;2081159;28;20034;-70
2021/08/28 09:23:38;;;;;;;7.43;6.40;;;18.50;99.90;;;;;;2080847;28;20030;-69
2021/08/28 09:24:44;;;;;;;8.48;7.43;;;18.50;99.90;;;;;;2080654;28;20025;-69
2021/08/28 09:25:53;;;;;;;8.18;6.80;;;18.50;99.90;;;;;;2081187;28;20034;-69
2021/08/28 09:26:53;;;;;;;8.52;6.95;;;18.50;99.90;;;;;;2080584;28;20104;-70
2021/08/28 09:27:54;;;;;;;8.70;6.95;;;18.40;99.90;;;;;;2080652;28;20029;-70
2021/08/28 09:28:56;;;;;;;8.35;6.55;;;18.40;99.90;;;;;;2080878;28;20057;-70
2021/08/28 09:29:56;;;;;;;11.95;7.15;;;18.50;99.90;;;;;;2080977;28;20116;-70
2021/08/28 09:31:01;;;;;;;7.93;7.15;;;18.50;99.90;;;;;;2081023;28;20025;-70
2021/08/28 09:32:02;;;;;;;7.60;6.63;;;18.50;99.90;;;;;;2072159;28;20069;-70
2021/08/28 09:33:08;;;;;;;8.70;6.85;;;18.60;99.90;;;;;;2072144;28;20026;-70
2021/08/28 09:34:28;;;;;;;8.68;7.25;;;18.50;99.90;;;;;;2081423;28;20587;-70
2021/08/28 09:35:47;;;;;;;8.23;7.05;;;18.50;99.90;;;;;;2081423;28;20489;-70
2021/08/28 09:37:00;;;;;;;10.02;7.10;;;18.60;99.90;;;;;;2081268;28;20541;-70
2021/08/28 09:38:01;;;;;;;10.15;7.18;;;18.60;99.90;;;;;;2080932;28;20029;-70
2021/08/28 09:39:02;;;;;;;7.85;7.05;;;18.60;99.90;;;;;;2080878;28;20022;-70
2021/08/28 09:40:05;;;;;;;9.23;7.53;;;18.60;99.90;;;;;;2072462;28;20049;-70
2021/08/28 09:41:06;;;;;;;8.52;7.40;;;18.60;99.90;;;;;;2072413;28;20056;-70
2021/08/28 09:42:08;;;;;;;7.25;6.47;;;18.70;99.90;;;;;;2072663;28;20029;-69
2021/08/28 09:43:14;;;;;;;7.72;6.95;;;18.70;99.90;;;;;;2077718;28;20172;-70
2021/08/28 09:44:20;;;;;;;7.18;6.47;;;18.70;99.90;;;;;;2079960;28;20078;-70
2021/08/28 09:45:23;;;;;;;9.40;6.80;;;18.70;99.90;;;;;;2081149;28;20030;-70
2021/08/28 09:46:24;;;;;;;10.27;6.70;;;18.70;99.90;;;;;;2081034;28;20433;-69
2021/08/28 09:47:29;;;;;;;8.93;7.05;;;18.70;99.90;;;;;;2080216;28;20025;-70
2021/08/28 09:48:30;;;;;;;7.57;6.88;;;18.70;99.90;;;;;;2080603;28;20029;-70
2021/08/28 09:49:30;;;;;;;7.70;7.00;;;18.70;99.90;;;;;;2080739;28;20032;-70
2021/08/28 09:50:34;;;;;;;7.60;6.60;;;18.70;99.90;;;;;;2081279;28;20045;-70
2021/08/28 09:51:40;;;;;;;7.35;6.60;;;18.80;99.90;;;;;;2080777;28;20029;-70
2021/08/28 09:52:43;;;;;;;7.65;6.88;;;18.80;99.90;;;;;;2080847;28;20037;-70
2021/08/28 09:53:44;;;;;;;8.80;6.85;;;18.80;99.90;;;;;;2077690;28;20057;-70
2021/08/28 09:54:45;;;;;;;7.93;6.00;;;18.80;99.90;;;;;;1203949;28;10001029;-70
2021/08/28 09:55:45;;;;;;;7.13;6.30;;;18.90;99.90;;;;;;2072831;28;20458;-70
2021/08/28 09:57:00;;;;;;;8.90;7.18;;;18.90;99.90;;;;;;2081247;28;20720;-70
2021/08/28 09:58:01;;;;;;;7.88;6.30;;;18.90;99.90;;;;;;2081097;28;20489;-69
2021/08/28 09:59:17;;;;;;;7.75;6.10;;;18.90;99.90;;;;;;2080908;28;20030;-70
2021/08/28 10:00:18;;;;;;;7.75;6.22;;;18.90;99.90;;;;;;2080985;28;20064;-70
2021/08/28 10:01:21;;;;;;;7.90;6.28;;;18.90;99.90;;;;;;2080952;28;20029;-70
2021/08/28 10:02:22;;;;;;;10.50;6.40;;;18.90;99.90;;;;;;2080827;28;20021;-70
2021/08/28 10:03:31;;;;;;;8.48;6.72;;;18.90;99.90;;;;;;2080974;28;20025;-70
2021/08/28 10:04:48;;;;;;;7.53;6.20;;;18.90;99.90;;;;;;2080975;28;20392;-70
2021/08/28 10:05:50;;;;;;;8.00;6.18;;;18.90;99.90;;;;;;2072121;28;20037;-70
2021/08/28 10:06:50;;;;;;;7.45;5.85;;;18.90;99.90;;;;;;2072541;28;20050;-70
2021/08/28 10:07:54;;;;;;;7.57;6.43;;;19.00;99.90;;;;;;2080724;28;20029;-70
2021/08/28 10:08:55;;;;;;;8.18;6.10;;;19.00;99.90;;;;;;2080972;28;20033;-70
2021/08/28 10:09:56;;;;;;;7.55;6.82;;;19.00;99.90;;;;;;2080800;28;20017;-70
2021/08/28 10:11:00;;;;;;;8.55;6.57;;;19.00;99.90;;;;;;2080861;28;20029;-70
2021/08/28 10:12:00;;;;;;;7.47;6.57;;;19.00;99.90;;;;;;2080851;28;20021;-70
2021/08/28 10:13:02;;;;;;;6.97;6.32;;;19.00;99.90;;;;;;2080659;28;20014;-69
2021/08/28 10:14:03;;;;;;;8.65;6.85;;;19.00;99.90;;;;;;2080930;28;20358;-69
2021/08/28 10:15:07;;;;;;;7.10;6.32;;;19.00;99.90;;;;;;2080904;28;20121;-70
2021/08/28 10:16:09;;;;;;;7.85;6.00;;;19.10;99.90;;;;;;2080045;28;20018;-70
2021/08/28 10:17:11;;;;;;;7.32;6.25;;;19.10;99.90;;;;;;2078906;28;20050;-69
2021/08/28 10:18:12;;;;;;;6.90;6.20;;;19.10;99.90;;;;;;2079409;28;20013;-69
2021/08/28 10:19:17;;;;;;;6.63;5.95;;;19.10;99.90;;;;;;2081686;28;20047;-69
2021/08/28 10:20:19;;;;;;;8.20;5.72;;;19.10;99.90;;;;;;2083088;28;20071;-69
2021/08/28 10:21:19;;;;;;;7.88;6.03;;;19.20;99.90;;;;;;2083836;28;20511;-69
2021/08/28 10:22:23;;;;;;;8.10;6.40;;;19.20;99.90;;;;;;2079049;28;20475;-69
2021/08/28 10:23:29;;;;;;;7.65;6.50;;;19.20;99.90;;;;;;2079684;28;20033;-69
2021/08/28 10:24:29;;;;;;;6.88;6.15;;;19.20;99.90;;;;;;2084451;28;20111;-69
2021/08/28 10:25:31;;;;;;;8.35;6.47;;;19.20;99.90;;;;;;2083202;28;20492;-70
2021/08/28 10:26:33;;;;;;;9.82;6.30;;;19.20;99.90;;;;;;2085297;28;20025;-70
2021/08/28 10:27:34;;;;;;;7.72;5.90;;;19.20;99.90;;;;;;2079014;28;20057;-70
2021/08/28 10:28:34;;;;;;;10.50;6.93;;;19.20;99.90;;;;;;2080336;28;20488;-70
2021/08/28 10:29:36;;;;;;;7.82;6.63;;;19.20;99.90;;;;;;2080352;28;20473;-70
2021/08/28 10:30:37;;;;;;;9.10;6.45;;;19.20;99.90;;;;;;2080616;28;20025;-70
2021/08/28 10:31:37;;;;;;;6.70;6.07;;;19.20;99.90;;;;;;2078598;28;20032;-70
2021/08/28 10:32:40;;;;;;;7.57;5.95;;;19.20;99.90;;;;;;2080044;28;20104;-69
2021/08/28 10:33:40;;;;;;;11.63;6.80;;;19.20;99.90;;;;;;2075074;28;20032;-69
2021/08/28 10:34:41;;;;;;;7.97;6.13;;;19.20;99.90;;;;;;2087278;28;20049;-70
2021/08/28 10:35:41;;;;;;;8.75;6.38;;;19.30;99.90;;;;;;2078842;28;20024;-70
2021/08/28 10:36:43;;;;;;;6.22;5.63;;;19.30;99.90;;;;;;2079231;28;20338;-70
2021/08/28 10:37:44;;;;;;;8.45;6.28;;;19.30;99.90;;;;;;2079453;28;20080;-69
2021/08/28 10:38:47;;;;;;;7.60;6.30;;;19.30;99.90;;;;;;2079260;28;20025;-70
2021/08/28 10:39:50;;;;;;;7.35;6.60;;;19.30;99.90;;;;;;2078967;28;20053;-70
2021/08/28 10:40:55;;;;;;;7.30;6.38;;;19.30;99.90;;;;;;2079920;28;20036;-70
2021/08/28 10:41:56;;;;;;;6.03;5.53;;;19.30;99.90;;;;;;2078961;28;20030;-70
2021/08/28 10:43:03;;;;;;;7.47;6.22;;;19.30;99.90;;;;;;2079372;28;20104;-70
2021/08/28 10:44:04;;;;;;;7.80;5.78;;;19.30;99.90;;;;;;2070725;28;20030;-69
2021/08/28 10:45:06;;;;;;;7.10;5.47;;;19.30;99.90;;;;;;2070768;28;20032;-70
2021/08/28 10:46:18;;;;;;;7.63;6.30;;;19.30;99.90;;;;;;2079278;28;20040;-69
2021/08/28 10:47:26;;;;;;;11.20;5.90;;;19.40;99.90;;;;;;2079570;28;20025;-69
2021/08/28 10:48:26;;;;;;;7.60;6.18;;;19.40;99.90;;;;;;2079869;28;20650;-69
2021/08/28 10:49:30;;;;;;;7.15;5.38;;;19.40;99.90;;;;;;2079068;28;20425;-70
2021/08/28 10:50:32;;;;;;;7.93;5.85;;;19.40;99.90;;;;;;2079614;28;20061;-70
2021/08/28 10:51:35;;;;;;;6.28;5.68;;;19.50;99.90;;;;;;2079063;28;20029;-70
2021/08/28 10:52:38;;;;;;;5.97;5.47;;;19.50;99.90;;;;;;2079214;28;20060;-70
2021/08/28 10:53:40;;;;;;;6.57;5.85;;;19.50;99.90;;;;;;2079205;28;20377;-70
2021/08/28 10:54:41;;;;;;;6.40;5.80;;;19.50;99.90;;;;;;2080392;28;20183;-69
2021/08/28 10:55:44;;;;;;;8.43;5.55;;;19.50;99.90;;;;;;2081014;28;20025;-70
2021/08/28 10:56:54;;;;;;;6.13;5.25;;;19.50;99.90;;;;;;2081449;28;20018;-70
2021/08/28 10:58:15;;;;;;;7.28;5.63;;;19.50;99.90;;;;;;2081080;28;20072;-70
2021/08/28 10:59:19;;;;;;;6.82;5.85;;;19.50;99.90;;;;;;2081030;28;20109;-70
2021/08/28 11:00:21;;;;;;;6.50;5.35;;;19.50;99.90;;;;;;2072902;28;20025;-70
2021/08/28 11:02:09;;;;;;;7.07;5.88;;;19.60;99.90;;;;;;2077352;28;20084;-70
2021/08/28 11:03:29;;;;;;;8.13;5.68;;;19.60;99.90;;;;;;2047375;29;20412;-69
2021/08/28 11:04:38;;;;;;;6.28;5.28;;;19.60;99.90;;;;;;2076247;28;20356;-70
2021/08/28 11:05:38;;;;;;;5.55;5.03;;;19.60;99.90;;;;;;2080995;28;20390;-70
2021/08/28 11:06:39;;;;;;;6.95;5.43;;;19.70;99.90;;;;;;2080721;28;20051;-70
2021/08/28 11:07:42;;;;;;;5.85;5.28;;;19.70;99.90;;;;;;2080072;28;20072;-70
2021/08/28 11:08:55;;;;;;;8.80;5.57;;;19.80;99.90;;;;;;2073212;28;20022;-70
2021/08/28 11:10:06;;;;;;;6.53;5.88;;;19.80;99.90;;;;;;2080428;28;20025;-70
2021/08/28 11:11:32;;;;;;;5.82;5.32;;;19.90;99.90;;;;;;2084097;28;20100;-70